Time;durP1;ratioP1;P1;durP2;ratioP2;P2;SDS_P1;SDS_P2;PMS_P1;PMS_P2;Temp;Humidity;BMP_temperature;BMP_pressure;BME280_temperature;BME280_humidity;BME280_pressure;Samples;Min_cycle;Max_cycle;Signal;HPM_P1;HPM_P2
2022/11/15 00:00:27;;;;;;;12.63;8.17;;;;;;;6.81;96.11;100423.16;5059935;28;20256;-85
2022/11/15 00:02:56;;;;;;;9.13;7.10;;;;;;;6.76;96.16;100424.38;5059252;28;20316;-84
2022/11/15 00:05:23;;;;;;;9.23;8.00;;;;;;;6.69;95.82;100426.47;5055289;28;20206;-83
2022/11/15 00:07:49;;;;;;;9.50;8.03;;;;;;;6.65;96.04;100414.31;5055240;28;20228;-85
2022/11/15 00:10:16;;;;;;;10.03;7.87;;;;;;;6.61;96.06;100420.72;5061144;28;20202;-83
2022/11/15 00:12:45;;;;;;;11.53;8.03;;;;;;;6.58;96.10;100426.16;5051339;28;20205;-84
2022/11/15 00:15:11;;;;;;;10.53;8.87;;;;;;;6.57;96.49;100424.44;5060531;28;20251;-81
2022/11/15 00:17:38;;;;;;;12.53;9.83;;;;;;;6.58;96.83;100426.16;5050288;28;20233;-81
2022/11/15 00:20:09;;;;;;;11.47;9.27;;;;;;;6.64;97.22;100412.59;5059908;28;20201;-80
2022/11/15 00:22:36;;;;;;;12.27;9.03;;;;;;;6.72;97.43;100422.81;5056363;28;20209;-82
2022/11/15 00:25:03;;;;;;;12.47;8.73;;;;;;;6.79;97.93;100406.53;5060086;28;20210;-81
2022/11/15 00:27:29;;;;;;;12.30;9.10;;;;;;;6.88;98.75;100414.00;5056617;28;20221;-82
2022/11/15 00:29:56;;;;;;;9.57;8.07;;;;;;;6.96;98.98;100403.88;5054047;28;20209;-82
2022/11/15 00:32:22;;;;;;;13.47;9.00;;;;;;;7.02;99.64;100397.38;5055389;28;20212;-82
2022/11/15 00:34:49;;;;;;;13.57;8.23;;;;;;;7.09;99.75;100406.72;5051171;28;20198;-82
2022/11/15 00:37:16;;;;;;;11.90;10.00;;;;;;;7.15;100.00;100393.16;5057581;28;20237;-80
2022/11/15 00:39:43;;;;;;;10.60;8.27;;;;;;;7.23;100.00;100404.19;5053157;28;20209;-82
2022/11/15 00:42:09;;;;;;;10.47;7.77;;;;;;;7.28;100.00;100410.09;5049626;28;20313;-82
2022/11/15 00:44:36;;;;;;;10.67;8.67;;;;;;;7.35;100.00;100400.03;5061556;28;20204;-81
2022/11/15 00:47:02;;;;;;;10.47;8.37;;;;;;;7.41;100.00;100393.53;5052005;28;20245;-81
2022/11/15 00:49:29;;;;;;;11.27;8.13;;;;;;;7.45;100.00;100397.75;5055931;28;20217;-82
2022/11/15 00:51:55;;;;;;;13.13;9.53;;;;;;;7.47;100.00;100390.56;5056854;28;20205;-82
2022/11/15 00:54:23;;;;;;;13.67;9.63;;;;;;;7.55;100.00;100391.00;5059578;28;20208;-82
2022/11/15 00:56:50;;;;;;;15.63;9.27;;;;;;;7.65;100.00;100393.06;5060748;28;20232;-82
2022/11/15 00:59:16;;;;;;;11.87;8.40;;;;;;;7.76;100.00;100384.50;5055339;28;20664;-84
2022/11/15 01:01:43;;;;;;;10.13;8.53;;;;;;;7.88;100.00;100382.97;5055669;28;20225;-81
2022/11/15 01:04:09;;;;;;;11.53;8.47;;;;;;;7.96;100.00;100383.38;5057554;28;20295;-80
2022/11/15 01:06:36;;;;;;;13.07;8.70;;;;;;;8.05;100.00;100382.88;5050759;28;20714;-81
2022/11/15 01:09:02;;;;;;;12.13;8.70;;;;;;;8.15;100.00;100380.53;5051081;28;20232;-80
2022/11/15 01:11:30;;;;;;;10.10;8.17;;;;;;;8.24;100.00;100374.72;5052510;28;20201;-81
2022/11/15 01:13:56;;;;;;;13.40;7.87;;;;;;;8.35;100.00;100365.22;5046523;28;20699;-80
2022/11/15 01:16:23;;;;;;;10.70;8.17;;;;;;;8.46;100.00;100361.06;5056414;28;20225;-80
2022/11/15 01:18:50;;;;;;;13.47;7.70;;;;;;;8.55;100.00;100360.53;5051385;28;20209;-81
2022/11/15 01:21:18;;;;;;;9.47;7.73;;;;;;;8.61;100.00;100347.72;5059414;28;20201;-80
2022/11/15 01:23:45;;;;;;;9.90;7.53;;;;;;;8.68;100.00;100342.91;5045126;28;20202;-82
2022/11/15 01:26:14;;;;;;;12.10;7.77;;;;;;;8.76;100.00;100345.97;5055928;28;20622;-80
2022/11/15 01:28:42;;;;;;;9.37;7.37;;;;;;;8.81;100.00;100333.25;5054907;28;20194;-82
2022/11/15 01:31:13;;;;;;;8.90;7.27;;;;;;;8.89;100.00;100341.59;5057951;28;20211;-81
2022/11/15 01:33:39;;;;;;;9.83;6.57;;;;;;;9.00;100.00;100335.63;5052395;28;20205;-82
2022/11/15 01:36:07;;;;;;;7.57;6.67;;;;;;;9.05;100.00;100329.09;5048410;28;20204;-82
2022/11/15 01:38:34;;;;;;;10.10;6.77;;;;;;;9.13;100.00;100325.13;5055128;28;20209;-80
2022/11/15 01:41:00;;;;;;;10.23;7.30;;;;;;;9.19;100.00;100320.25;5056983;28;20201;-82
2022/11/15 01:43:29;;;;;;;13.57;7.90;;;;;;;9.25;100.00;100321.69;5052037;28;20224;-81
2022/11/15 01:46:01;;;;;;;10.30;6.37;;;;;;;9.27;100.00;100320.63;5049902;28;20209;-81
2022/11/15 01:48:32;;;;;;;9.07;7.07;;;;;;;9.29;100.00;100320.53;5055209;28;20196;-80
2022/11/15 01:51:00;;;;;;;9.17;7.00;;;;;;;9.32;100.00;100318.50;5051912;28;20213;-81
2022/11/15 01:53:28;;;;;;;9.17;7.00;;;;;;;9.36;100.00;100317.38;5053997;28;20561;-79
2022/11/15 01:55:55;;;;;;;7.90;6.80;;;;;;;9.40;100.00;100315.38;5049819;28;20544;-81
2022/11/15 01:58:21;;;;;;;8.27;7.37;;;;;;;9.46;100.00;100316.81;5055023;28;20228;-81
2022/11/15 02:00:49;;;;;;;10.20;7.07;;;;;;;9.46;100.00;100317.66;5046327;28;20206;-81
2022/11/15 02:03:17;;;;;;;10.20;7.33;;;;;;;9.49;100.00;100314.81;5053025;28;20229;-81
2022/11/15 02:05:44;;;;;;;9.93;7.50;;;;;;;9.58;100.00;100311.53;5043248;28;20213;-80
2022/11/15 02:08:19;;;;;;;12.30;7.87;;;;;;;9.62;100.00;100313.06;5052333;28;20232;-80
2022/11/15 02:10:46;;;;;;;11.03;7.70;;;;;;;9.66;100.00;100319.91;5045845;28;20197;-79
2022/11/15 02:13:13;;;;;;;9.77;7.77;;;;;;;9.72;100.00;100305.31;5047761;28;20217;-82
2022/11/15 02:15:49;;;;;;;10.60;8.03;;;;;;;9.80;100.00;100299.53;5055375;28;20225;-82
2022/11/15 02:18:25;;;;;;;12.07;7.67;;;;;;;9.85;100.00;100298.28;5058481;28;20616;-82
2022/11/15 02:21:08;;;;;;;10.63;6.83;;;;;;;9.92;100.00;100293.38;5056067;28;20220;-82
2022/11/15 02:24:26;;;;;;;9.80;7.17;;;;;;;9.96;100.00;100286.91;5051819;28;20709;-82
2022/11/15 02:27:38;;;;;;;10.67;7.20;;;;;;;9.97;100.00;100285.97;4967274;28;20280;-80
2022/11/15 02:30:30;;;;;;;9.47;6.20;;;;;;;10.01;100.00;100292.78;4976774;28;20216;-82
2022/11/15 02:33:01;;;;;;;10.70;6.60;;;;;;;10.04;99.50;100295.22;5059001;28;20197;-82
2022/11/15 02:35:36;;;;;;;7.70;6.73;;;;;;;10.05;99.76;100288.94;5059998;28;20206;-81
2022/11/15 02:38:08;;;;;;;9.47;6.33;;;;;;;10.07;99.23;100297.69;5053068;28;20233;-81
2022/11/15 02:40:41;;;;;;;8.13;6.33;;;;;;;10.08;99.00;100283.41;5048720;28;20595;-83
2022/11/15 02:46:06;;;;;;;6.60;5.97;;;;;;;10.15;98.53;100287.38;5056169;28;20713;-83
2022/11/15 02:48:33;;;;;;;11.20;6.30;;;;;;;10.18;98.46;100287.19;5047930;28;20201;-82
2022/11/15 02:51:01;;;;;;;9.07;6.13;;;;;;;10.24;98.34;100283.28;5051241;28;20591;-82
2022/11/15 02:53:28;;;;;;;12.07;6.23;;;;;;;10.28;97.97;100284.78;5051124;28;20835;-83
2022/11/15 02:55:57;;;;;;;6.77;5.73;;;;;;;10.31;97.86;100281.91;5053259;28;20233;-81
2022/11/15 02:58:37;;;;;;;7.20;5.67;;;;;;;10.33;97.45;100283.50;5050496;28;20213;-82
2022/11/15 03:01:14;;;;;;;8.93;5.57;;;;;;;10.32;97.42;100276.47;5055532;28;20206;-82
2022/11/15 03:03:56;;;;;;;7.00;6.10;;;;;;;10.31;97.10;100279.25;5054265;28;20222;-82
2022/11/15 03:06:31;;;;;;;8.37;5.50;;;;;;;10.27;97.11;100280.41;5051744;28;20237;-82
2022/11/15 03:09:05;;;;;;;9.67;5.37;;;;;;;10.25;96.45;100271.66;5059670;28;20234;-81
2022/11/15 03:11:38;;;;;;;7.07;5.90;;;;;;;10.22;96.55;100275.38;5051075;28;20693;-82
2022/11/15 03:14:15;;;;;;;7.90;5.67;;;;;;;10.21;96.06;100278.19;5049528;28;20579;-83
2022/11/15 03:16:48;;;;;;;5.93;5.13;;;;;;;10.21;95.65;100288.81;5047673;28;20225;-82
2022/11/15 03:19:20;;;;;;;9.17;5.00;;;;;;;10.19;95.55;100286.25;5043215;28;20209;-81
2022/11/15 03:21:49;;;;;;;8.63;5.27;;;;;;;10.20;95.44;100280.00;5052671;28;20229;-81
2022/11/15 03:24:18;;;;;;;5.67;5.00;;;;;;;10.22;95.58;100275.38;5051878;28;20603;-82
2022/11/15 03:26:48;;;;;;;7.30;5.47;;;;;;;10.27;95.48;100286.59;5056757;28;20224;-81
2022/11/15 03:29:18;;;;;;;7.20;5.60;;;;;;;10.31;95.49;100279.25;5054622;28;20225;-83
2022/11/15 03:31:51;;;;;;;8.97;5.80;;;;;;;10.32;95.47;100272.97;5055119;28;20203;-81
2022/11/15 03:34:25;;;;;;;6.37;5.13;;;;;;;10.31;95.09;100266.78;5055171;28;20205;-80
2022/11/15 03:36:52;;;;;;;8.67;5.50;;;;;;;10.33;95.02;100272.88;5053515;28;20229;-81
2022/11/15 03:39:20;;;;;;;7.37;5.37;;;;;;;10.36;94.74;100278.00;5051767;28;20296;-81
2022/11/15 03:41:51;;;;;;;6.70;5.30;;;;;;;10.36;94.53;100278.00;5056529;28;20207;-80
2022/11/15 03:44:26;;;;;;;8.77;5.63;;;;;;;10.36;94.48;100285.97;5054270;28;20202;-81
2022/11/15 03:47:01;;;;;;;10.70;5.43;;;;;;;10.36;94.10;100287.78;5055061;28;20231;-81
2022/11/15 03:49:32;;;;;;;5.73;4.60;;;;;;;10.33;93.62;100294.16;5056754;28;20202;-83
2022/11/15 03:52:00;;;;;;;6.63;4.50;;;;;;;10.32;93.30;100291.59;5057394;28;20255;-82
2022/11/15 03:54:34;;;;;;;5.43;4.20;;;;;;;10.31;93.21;100295.22;5053296;28;20577;-85
2022/11/15 03:57:01;;;;;;;6.70;4.40;;;;;;;10.29;93.36;100297.97;5056031;28;20222;-81
2022/11/15 03:59:27;;;;;;;6.33;4.70;;;;;;;10.27;92.96;100291.06;5064264;28;20215;-83
2022/11/15 04:01:55;;;;;;;6.33;4.73;;;;;;;10.24;93.29;100286.78;5054726;28;20216;-83
2022/11/15 04:04:22;;;;;;;6.13;4.10;;;;;;;10.23;93.02;100286.88;5055755;28;20217;-82
2022/11/15 04:06:48;;;;;;;5.90;4.53;;;;;;;10.22;92.77;100285.19;5065211;28;20238;-83
2022/11/15 04:09:14;;;;;;;7.13;3.80;;;;;;;10.20;92.54;100272.00;5065280;28;20212;-82
2022/11/15 04:11:41;;;;;;;5.87;4.47;;;;;;;10.16;92.47;100283.78;5052325;28;20213;-83
2022/11/15 04:14:07;;;;;;;7.93;4.47;;;;;;;10.11;92.10;100291.19;5057848;28;20250;-83
2022/11/15 04:16:34;;;;;;;7.00;4.60;;;;;;;10.06;92.26;100291.50;5057691;28;20226;-84
2022/11/15 04:24:26;;;;;;;5.03;4.53;;;;;;;9.90;91.86;100293.47;5053236;28;20558;-83
2022/11/15 04:26:53;;;;;;;4.60;4.20;;;;;;;9.86;91.26;100296.44;5056357;28;20730;-84
2022/11/15 04:32:11;;;;;;;4.87;4.03;;;;;;;9.71;91.15;100295.63;5027067;28;20667;-80
2022/11/15 04:34:42;;;;;;;5.97;4.63;;;;;;;9.64;91.25;100297.88;5048259;28;20194;-81
2022/11/15 04:37:15;;;;;;;5.13;4.30;;;;;;;9.58;90.99;100290.28;5061679;28;20710;-82
2022/11/15 04:39:43;;;;;;;7.30;4.93;;;;;;;9.55;91.04;100292.28;5052430;28;20236;-82
2022/11/15 04:42:11;;;;;;;5.03;4.53;;;;;;;9.50;91.34;100294.38;5053599;28;20210;-82
2022/11/15 04:44:37;;;;;;;4.90;4.40;;;;;;;9.44;91.05;100292.97;5056287;28;20652;-82
2022/11/15 04:47:04;;;;;;;7.73;4.67;;;;;;;9.40;91.54;100291.47;5045003;28;21347;-82
2022/11/15 04:49:30;;;;;;;5.67;4.63;;;;;;;9.35;91.47;100282.91;5055998;28;20214;-82
2022/11/15 04:51:58;;;;;;;5.37;4.87;;;;;;;9.30;91.42;100285.03;5052714;28;20208;-81
2022/11/15 04:54:25;;;;;;;5.10;4.50;;;;;;;9.25;91.86;100282.66;5053387;28;20751;-82
2022/11/15 04:56:51;;;;;;;6.13;4.77;;;;;;;9.22;92.10;100282.00;5053434;28;20237;-82
2022/11/15 04:59:18;;;;;;;4.57;4.17;;;;;;;9.20;92.04;100279.44;5046415;28;20577;-81
2022/11/15 05:01:44;;;;;;;5.00;4.10;;;;;;;9.18;92.41;100285.81;5050051;28;22085;-81
2022/11/15 05:04:19;;;;;;;7.03;5.03;;;;;;;9.18;92.46;100283.16;5045909;28;20593;-80
2022/11/15 05:06:46;;;;;;;5.53;4.17;;;;;;;9.16;92.51;100279.72;5049760;28;20237;-80
2022/11/15 05:09:14;;;;;;;5.33;4.70;;;;;;;9.13;93.12;100285.25;5045748;28;20803;-79
2022/11/15 05:11:41;;;;;;;6.50;4.60;;;;;;;9.14;93.22;100273.66;5047767;28;20215;-79
2022/11/15 05:14:07;;;;;;;8.13;5.77;;;;;;;9.11;93.07;100289.81;5041614;28;20206;-79
2022/11/15 05:16:34;;;;;;;10.53;5.87;;;;;;;9.10;93.69;100282.78;5045490;28;20237;-80
2022/11/15 05:19:00;;;;;;;5.97;4.80;;;;;;;9.10;93.71;100282.78;5045602;28;20209;-80
2022/11/15 05:21:27;;;;;;;7.20;4.83;;;;;;;9.10;93.43;100288.97;5048986;28;20679;-79
2022/11/15 05:23:53;;;;;;;6.03;4.37;;;;;;;9.11;94.14;100285.34;5043691;28;20597;-81
2022/11/15 05:26:21;;;;;;;5.33;4.57;;;;;;;9.13;94.03;100285.25;5044609;28;20236;-81
2022/11/15 05:28:52;;;;;;;5.77;4.47;;;;;;;9.13;94.42;100277.28;5044424;28;20203;-79
2022/11/15 05:31:19;;;;;;;4.93;4.20;;;;;;;9.15;94.72;100275.38;5043727;28;20271;-80
2022/11/15 05:33:45;;;;;;;4.87;4.10;;;;;;;9.16;94.57;100282.38;5046630;28;20232;-80
2022/11/15 05:36:18;;;;;;;6.97;4.53;;;;;;;9.14;94.39;100276.31;5045986;28;20220;-81
2022/11/15 05:38:44;;;;;;;5.53;4.47;;;;;;;9.11;94.76;100277.38;5038574;28;20633;-81
2022/11/15 05:41:12;;;;;;;6.07;4.70;;;;;;;9.07;94.26;100273.22;5046297;28;20214;-82
2022/11/15 05:43:42;;;;;;;7.60;5.40;;;;;;;9.03;94.23;100275.19;5061347;28;20232;-81
2022/11/15 05:46:09;;;;;;;9.07;5.20;;;;;;;9.00;94.73;100283.34;5038721;28;20202;-82
2022/11/15 05:48:38;;;;;;;7.80;5.53;;;;;;;8.97;94.72;100283.53;5050836;28;20829;-81
2022/11/15 05:51:07;;;;;;;12.40;7.07;;;;;;;8.93;94.51;100282.06;5046617;28;20835;-82
2022/11/15 05:53:34;;;;;;;11.57;7.50;;;;;;;8.91;94.40;100280.44;5041309;28;20221;-81
2022/11/15 05:56:00;;;;;;;10.47;7.80;;;;;;;8.87;94.29;100294.84;5041836;28;20206;-80
2022/11/15 05:58:27;;;;;;;12.27;7.77;;;;;;;8.82;93.95;100287.16;5043941;28;20667;-80
2022/11/15 06:00:55;;;;;;;11.80;6.90;;;;;;;8.81;93.99;100288.09;5041794;28;20581;-82
2022/11/15 06:03:24;;;;;;;10.80;7.40;;;;;;;8.78;94.56;100282.97;5041076;28;20221;-82
2022/11/15 06:05:51;;;;;;;6.80;5.43;;;;;;;8.77;95.07;100286.59;5043056;28;20672;-81
2022/11/15 06:08:17;;;;;;;6.00;5.00;;;;;;;8.79;94.97;100281.16;5046463;28;20695;-82
2022/11/15 06:10:44;;;;;;;7.90;4.93;;;;;;;8.78;94.83;100282.97;5039155;28;20602;-80
2022/11/15 06:13:10;;;;;;;5.30;4.47;;;;;;;8.79;95.45;100268.75;5043059;28;20689;-81
2022/11/15 06:15:37;;;;;;;5.50;4.53;;;;;;;8.78;94.94;100280.31;5041822;28;20201;-82
2022/11/15 06:18:05;;;;;;;6.57;4.70;;;;;;;8.78;95.15;100282.97;5040985;28;21397;-81
2022/11/15 06:20:31;;;;;;;5.47;4.80;;;;;;;8.77;95.35;100288.41;5046274;28;20682;-81
2022/11/15 06:22:59;;;;;;;5.30;4.60;;;;;;;8.76;95.47;100299.97;5045067;28;20229;-81
2022/11/15 06:25:25;;;;;;;6.70;5.07;;;;;;;8.75;95.73;100298.25;5038742;28;20257;-82
2022/11/15 06:27:52;;;;;;;6.10;4.73;;;;;;;8.75;95.70;100299.13;5037537;28;20911;-80
2022/11/15 06:30:19;;;;;;;7.07;4.53;;;;;;;8.73;95.86;100310.78;5040498;28;20193;-81
2022/11/15 06:32:45;;;;;;;5.57;4.97;;;;;;;8.71;95.57;100308.22;5040705;28;20194;-82
2022/11/15 06:35:13;;;;;;;6.63;4.30;;;;;;;8.69;96.01;100310.97;5039414;28;20214;-80
2022/11/15 06:37:40;;;;;;;6.20;4.90;;;;;;;8.69;96.29;100312.75;5042154;28;20229;-81
2022/11/15 06:40:08;;;;;;;5.07;4.27;;;;;;;8.69;96.18;100310.97;5037931;28;20209;-80
2022/11/15 06:42:35;;;;;;;5.67;5.03;;;;;;;8.70;96.00;100311.81;5037887;28;20201;-80
2022/11/15 06:45:01;;;;;;;6.03;4.93;;;;;;;8.67;95.96;100318.16;5037293;28;20213;-80
2022/11/15 06:47:28;;;;;;;5.83;5.00;;;;;;;8.67;96.44;100315.50;5043443;28;20620;-81
2022/11/15 06:49:54;;;;;;;6.60;4.70;;;;;;;8.67;96.75;100314.66;5046426;28;20206;-81
2022/11/15 06:52:22;;;;;;;7.40;4.77;;;;;;;8.66;96.96;100308.47;5041767;28;20209;-80
2022/11/15 06:54:49;;;;;;;6.50;5.33;;;;;;;8.66;97.37;100315.59;5048403;28;20208;-81
2022/11/15 06:57:15;;;;;;;7.57;5.23;;;;;;;8.66;97.28;100307.63;5044858;28;20233;-81
2022/11/15 06:59:41;;;;;;;7.30;5.03;;;;;;;8.66;97.50;100316.44;5043408;28;20207;-80
2022/11/15 07:02:13;;;;;;;7.67;6.00;;;;;;;8.68;97.43;100326.97;5050873;28;20209;-80
2022/11/15 07:04:39;;;;;;;7.97;6.07;;;;;;;8.69;97.70;100326.03;5054156;28;20217;-81
2022/11/15 07:07:05;;;;;;;8.67;5.97;;;;;;;8.69;98.04;100323.38;5043931;28;20727;-81
2022/11/15 07:09:33;;;;;;;9.20;5.80;;;;;;;8.71;97.68;100329.44;5052065;28;20204;-81
2022/11/15 07:12:00;;;;;;;8.40;5.33;;;;;;;8.71;98.03;100324.16;5055338;28;20212;-81
2022/11/15 07:14:26;;;;;;;8.03;5.53;;;;;;;8.74;97.94;100333.72;5054255;28;20201;-81
2022/11/15 07:16:53;;;;;;;8.97;5.53;;;;;;;8.75;98.23;100324.81;5058926;28;20235;-81
2022/11/15 07:19:19;;;;;;;6.47;4.83;;;;;;;8.77;97.71;100330.91;5053377;28;20199;-81
2022/11/15 07:21:46;;;;;;;6.33;5.07;;;;;;;8.76;98.33;100327.38;5053708;28;20289;-81
2022/11/15 07:24:13;;;;;;;9.27;5.03;;;;;;;8.78;98.14;100325.47;5052027;28;20683;-81
2022/11/15 07:26:41;;;;;;;6.07;4.77;;;;;;;8.78;98.06;100328.13;5063711;28;20220;-81
2022/11/15 07:29:07;;;;;;;5.87;5.13;;;;;;;8.76;98.24;100327.38;5053176;28;20672;-81
2022/11/15 07:31:34;;;;;;;7.83;5.00;;;;;;;8.76;97.67;100322.06;5062761;28;20698;-81
2022/11/15 07:34:00;;;;;;;5.63;5.07;;;;;;;8.76;98.18;100319.41;5052436;28;20672;-81
2022/11/15 07:36:27;;;;;;;7.27;5.43;;;;;;;8.77;97.99;100320.28;5059905;28;20225;-81
2022/11/15 07:38:53;;;;;;;5.90;5.20;;;;;;;8.75;97.84;100315.06;5058575;28;20216;-81
2022/11/15 07:41:19;;;;;;;6.73;4.93;;;;;;;8.75;97.36;100328.31;5053717;28;20209;-81
2022/11/15 07:43:47;;;;;;;5.97;5.07;;;;;;;8.77;97.39;100320.28;5057678;28;20228;-81
2022/11/15 07:46:14;;;;;;;6.80;4.90;;;;;;;8.78;97.50;100320.16;5068422;28;20211;-80
2022/11/15 07:48:40;;;;;;;7.07;4.57;;;;;;;8.81;98.04;100325.28;5052892;28;20217;-81
2022/11/15 07:51:07;;;;;;;5.57;4.70;;;;;;;8.83;98.14;100318.06;5058426;28;20810;-81
2022/11/15 07:53:36;;;;;;;5.60;4.50;;;;;;;8.86;97.67;100323.19;5057610;28;20203;-81
2022/11/15 07:56:03;;;;;;;6.37;5.07;;;;;;;8.89;98.03;100320.38;5063513;28;20201;-80
2022/11/15 07:58:29;;;;;;;7.50;4.40;;;;;;;8.92;97.73;100319.31;5051427;28;20201;-80
2022/11/15 08:00:57;;;;;;;5.03;4.53;;;;;;;8.94;98.61;100315.63;5047858;28;20213;-80
2022/11/15 08:03:23;;;;;;;7.17;5.13;;;;;;;8.97;97.78;100317.22;5043880;28;20226;-81
2022/11/15 08:05:52;;;;;;;6.10;5.13;;;;;;;8.99;97.83;100308.22;5051420;28;20214;-80
2022/11/15 08:08:18;;;;;;;6.13;4.77;;;;;;;9.02;97.78;100312.47;5049771;28;20232;-81
2022/11/15 08:10:45;;;;;;;6.03;4.53;;;;;;;9.03;98.36;100314.19;5065005;28;20563;-81
2022/11/15 08:13:13;;;;;;;6.23;4.50;;;;;;;9.03;97.81;100307.06;5048673;28;20209;-80
2022/11/15 08:15:39;;;;;;;7.43;4.83;;;;;;;9.04;97.68;100295.50;5056889;28;20287;-81
2022/11/15 08:18:11;;;;;;;6.23;5.10;;;;;;;9.07;98.12;100301.56;5060333;28;20235;-80
2022/11/15 08:20:37;;;;;;;4.90;4.40;;;;;;;9.11;98.11;100311.06;5059772;28;20338;-80
2022/11/15 08:23:05;;;;;;;5.07;4.57;;;;;;;9.17;97.80;100318.63;5049548;28;20271;-80
2022/11/15 08:25:33;;;;;;;7.10;5.30;;;;;;;9.22;98.62;100308.56;5047389;28;20206;-80
2022/11/15 08:28:03;;;;;;;6.53;5.20;;;;;;;9.30;98.03;100316.94;5046201;28;20225;-80
2022/11/15 08:30:30;;;;;;;6.30;4.40;;;;;;;9.38;98.59;100307.50;5049755;28;20659;-80
2022/11/15 08:32:58;;;;;;;6.53;3.97;;;;;;;9.49;98.49;100308.66;5046229;28;20206;-80
2022/11/15 08:35:26;;;;;;;6.23;3.80;;;;;;;9.61;98.32;100313.16;5045018;28;20211;-80
2022/11/15 08:37:53;;;;;;;5.13;3.80;;;;;;;9.72;98.08;100314.16;5046167;28;20226;-80
2022/11/15 08:40:20;;;;;;;4.07;3.67;;;;;;;9.85;98.59;100308.91;5047213;28;20194;-80
2022/11/15 08:42:47;;;;;;;5.93;3.97;;;;;;;9.98;97.93;100311.59;5044460;28;20218;-80
2022/11/15 08:45:13;;;;;;;6.07;4.13;;;;;;;10.09;98.14;100309.94;5060083;28;20222;-80
2022/11/15 08:47:40;;;;;;;5.77;3.53;;;;;;;10.22;98.25;100301.16;5043718;28;20222;-80
2022/11/15 08:50:07;;;;;;;5.03;3.90;;;;;;;10.35;97.51;100299.38;5057815;28;20207;-81
2022/11/15 08:52:35;;;;;;;6.17;3.67;;;;;;;10.48;97.09;100292.25;5054771;28;20208;-80
2022/11/15 08:55:02;;;;;;;3.97;3.07;;;;;;;10.60;96.34;100295.88;5053324;28;20215;-80
2022/11/15 08:57:29;;;;;;;5.00;3.30;;;;;;;10.71;95.89;100285.34;5047163;28;20226;-80
2022/11/15 08:59:56;;;;;;;6.30;3.87;;;;;;;10.85;95.04;100289.72;5056048;28;20885;-81
2022/11/15 09:02:22;;;;;;;4.97;3.53;;;;;;;10.97;94.27;100280.84;5055845;28;20283;-81
2022/11/15 09:04:49;;;;;;;4.50;3.33;;;;;;;11.10;93.44;100287.03;5051262;28;20241;-81
2022/11/15 09:07:16;;;;;;;4.83;3.13;;;;;;;11.22;92.57;100282.63;5053467;28;20247;-80
2022/11/15 09:09:43;;;;;;;3.93;3.50;;;;;;;11.32;91.87;100279.16;5053341;28;20209;-81
2022/11/15 09:12:10;;;;;;;4.23;3.30;;;;;;;11.41;91.02;100281.19;5055479;28;20214;-81
2022/11/15 09:14:36;;;;;;;3.70;3.30;;;;;;;11.51;90.09;100294.69;5053127;28;20218;-81
2022/11/15 09:17:03;;;;;;;4.67;3.60;;;;;;;11.61;89.25;100295.75;5062591;28;20261;-81
2022/11/15 09:19:30;;;;;;;4.27;3.07;;;;;;;11.70;88.50;100300.38;5055703;28;20217;-81
2022/11/15 09:21:56;;;;;;;5.60;3.67;;;;;;;11.77;87.71;100309.69;5056911;28;20214;-81
2022/11/15 09:24:23;;;;;;;3.43;3.13;;;;;;;11.85;86.50;100297.56;5051546;28;20228;-82
2022/11/15 09:26:52;;;;;;;5.30;3.20;;;;;;;11.91;85.67;100297.13;5055041;28;20726;-82
2022/11/15 09:29:18;;;;;;;4.60;3.63;;;;;;;11.94;84.84;100291.56;5059034;28;20215;-82
2022/11/15 09:31:45;;;;;;;6.27;3.40;;;;;;;11.96;84.35;100292.31;5059418;28;20203;-82
2022/11/15 09:34:12;;;;;;;4.57;3.80;;;;;;;12.00;84.16;100297.28;5059226;28;20201;-82
2022/11/15 09:36:38;;;;;;;3.90;3.30;;;;;;;12.04;83.89;100292.56;5056380;28;20244;-82
2022/11/15 09:39:05;;;;;;;5.27;3.53;;;;;;;12.08;83.44;100281.56;5059214;28;20224;-82
2022/11/15 09:41:46;;;;;;;4.83;3.20;;;;;;;12.10;82.65;100287.63;5059973;28;20674;-82
2022/11/15 09:44:29;;;;;;;8.20;3.67;;;;;;;12.13;82.53;100287.41;5056314;28;20225;-82
2022/11/15 09:47:03;;;;;;;3.50;3.20;;;;;;;12.18;81.75;100290.56;5060650;28;20236;-82
2022/11/15 09:49:30;;;;;;;5.60;3.27;;;;;;;12.21;81.49;100278.78;5053105;28;20207;-83
2022/11/15 09:51:57;;;;;;;5.60;3.40;;;;;;;12.24;81.57;100283.91;5062722;28;20211;-81
2022/11/15 09:54:31;;;;;;;5.57;4.00;;;;;;;12.29;81.53;100283.56;5061560;28;20205;-82
2022/11/15 09:57:05;;;;;;;5.70;3.10;;;;;;;12.35;81.34;100289.31;5061718;28;20229;-82
2022/11/15 09:59:48;;;;;;;4.50;3.23;;;;;;;12.41;81.15;100288.81;5060507;28;20200;-82
2022/11/15 10:02:30;;;;;;;3.93;3.20;;;;;;;12.47;81.10;100284.84;5063004;28;20208;-82
2022/11/15 10:04:58;;;;;;;3.83;3.17;;;;;;;12.50;80.51;100280.13;5063177;28;20227;-83
2022/11/15 10:07:32;;;;;;;4.17;3.43;;;;;;;12.55;79.85;100276.22;5059709;28;20233;-82
2022/11/15 10:10:08;;;;;;;3.37;2.70;;;;;;;12.57;80.02;100280.47;5053511;28;20205;-83
2022/11/15 10:12:35;;;;;;;3.63;2.97;;;;;;;12.61;79.56;100279.25;5058413;28;20208;-83
2022/11/15 10:15:06;;;;;;;4.07;2.93;;;;;;;12.64;79.82;100275.50;5060717;28;20204;-83
2022/11/15 10:17:59;;;;;;;4.30;2.77;;;;;;;12.67;79.49;100268.13;5056264;28;20237;-83
2022/11/15 10:20:28;;;;;;;4.63;3.60;;;;;;;12.68;79.51;100272.50;5059781;28;20204;-83
2022/11/15 10:22:57;;;;;;;3.47;2.83;;;;;;;12.70;79.08;100262.53;5055966;28;20682;-83
2022/11/15 10:25:25;;;;;;;4.73;3.17;;;;;;;12.72;79.00;100262.41;5059757;28;20589;-83
2022/11/15 10:27:56;;;;;;;3.10;2.80;;;;;;;12.73;78.92;100270.28;5058844;28;20231;-83
2022/11/15 10:30:30;;;;;;;4.13;2.87;;;;;;;12.75;78.40;100262.16;5053640;28;20200;-83
2022/11/15 10:32:56;;;;;;;3.43;3.00;;;;;;;12.79;78.44;100263.63;5051727;28;20196;-83
2022/11/15 10:35:26;;;;;;;4.07;2.53;;;;;;;12.79;78.26;100269.81;5054053;28;20194;-83
2022/11/15 10:38:05;;;;;;;3.80;2.67;;;;;;;12.79;78.04;100269.81;5056581;28;20248;-83
2022/11/15 10:40:32;;;;;;;3.97;2.80;;;;;;;12.80;77.55;100254.63;5063875;28;20212;-83
2022/11/15 10:43:07;;;;;;;5.20;2.93;;;;;;;12.82;77.77;100255.38;5069069;28;20209;-83
2022/11/15 10:49:14;;;;;;;4.10;2.97;;;;;;;12.84;77.24;100245.41;4996335;28;20798;-82
2022/11/15 10:51:45;;;;;;;4.27;2.77;;;;;;;12.82;77.50;100252.69;5069313;28;20201;-82
2022/11/15 10:54:14;;;;;;;4.50;3.13;;;;;;;12.82;77.23;100242.84;5063323;28;20543;-80
2022/11/15 10:56:41;;;;;;;4.30;2.87;;;;;;;12.83;77.43;100241.03;5063657;28;20703;-79
2022/11/15 10:59:17;;;;;;;4.60;2.90;;;;;;;12.84;77.25;100235.56;5060486;28;20205;-80
2022/11/15 11:01:48;;;;;;;3.30;2.80;;;;;;;12.86;77.43;100240.78;5062120;28;20201;-80
2022/11/15 11:04:16;;;;;;;4.23;3.10;;;;;;;12.85;77.62;100233.75;5058994;28;20623;-80
2022/11/15 11:06:50;;;;;;;3.17;2.70;;;;;;;12.86;77.24;100232.78;5072013;28;20243;-80
2022/11/15 11:09:29;;;;;;;3.23;2.87;;;;;;;12.86;77.63;100233.63;5055252;28;20350;-82
2022/11/15 11:11:56;;;;;;;3.63;3.00;;;;;;;12.86;77.38;100230.97;5052448;28;20252;-80
2022/11/15 11:14:27;;;;;;;4.40;2.70;;;;;;;12.86;77.44;100232.78;5064921;28;20806;-80
2022/11/15 11:16:55;;;;;;;3.90;3.00;;;;;;;12.85;77.47;100228.41;5069296;28;20227;-80
2022/11/15 11:19:43;;;;;;;5.33;3.83;;;;;;;12.83;76.98;100225.00;5059192;28;20208;-81
2022/11/15 11:22:19;;;;;;;3.83;3.40;;;;;;;12.83;76.89;100217.84;5059450;28;20214;-80
2022/11/15 11:24:52;;;;;;;5.43;3.13;;;;;;;12.83;77.08;100220.50;5071214;28;20223;-80
2022/11/15 11:27:33;;;;;;;4.97;3.37;;;;;;;12.84;76.99;100211.53;5068810;28;20227;-80
2022/11/15 11:30:07;;;;;;;4.37;2.97;;;;;;;12.85;77.02;100213.22;5057386;28;20686;-79
2022/11/15 11:33:01;;;;;;;6.73;4.00;;;;;;;12.88;77.39;100213.94;5067179;28;20202;-81
2022/11/15 11:35:33;;;;;;;5.63;3.10;;;;;;;12.86;77.46;100211.41;5062594;28;20233;-79
2022/11/15 11:38:16;;;;;;;3.63;2.97;;;;;;;12.88;77.05;100208.59;5064094;28;20226;-78
2022/11/15 11:40:51;;;;;;;5.13;2.90;;;;;;;12.88;77.31;100209.47;5071064;28;20254;-81
2022/11/15 11:43:27;;;;;;;3.63;3.00;;;;;;;12.90;77.02;100209.34;5062337;28;20208;-80
2022/11/15 11:46:14;;;;;;;4.07;3.00;;;;;;;12.91;77.10;100203.84;5051721;28;20229;-79
2022/11/15 11:48:43;;;;;;;4.97;3.27;;;;;;;12.93;77.06;100209.06;5053625;28;20205;-79
2022/11/15 11:51:18;;;;;;;5.47;3.13;;;;;;;12.93;77.43;100206.38;5060453;28;20202;-78